createdAt,value
2023-01-19T00:00:31.520Z,4.40
2023-01-19T00:02:58.255Z,4.50
2023-01-19T00:05:24.938Z,4.07
2023-01-19T00:07:51.574Z,3.97
2023-01-19T00:10:18.272Z,4.00
2023-01-19T00:12:44.887Z,5.90
2023-01-19T00:15:11.722Z,5.10
2023-01-19T00:17:40.856Z,4.80
2023-01-19T00:20:09.065Z,4.80
2023-01-19T00:22:35.683Z,5.20
2023-01-19T00:25:02.517Z,4.13
2023-01-19T00:27:30.433Z,4.30
2023-01-19T00:29:57.058Z,4.27
2023-01-19T00:32:23.703Z,4.70
2023-01-19T00:34:52.326Z,5.37
2023-01-19T00:37:18.973Z,4.07
2023-01-19T00:39:45.654Z,4.37
2023-01-19T00:42:31.876Z,4.50
2023-01-19T00:44:58.768Z,5.17
2023-01-19T00:47:25.413Z,5.00
2023-01-19T00:49:52.179Z,4.13
2023-01-19T00:52:19.019Z,4.53
2023-01-19T00:54:45.651Z,4.27
2023-01-19T00:57:12.699Z,4.97
2023-01-19T00:59:39.397Z,4.80
2023-01-19T01:02:06.289Z,4.40
2023-01-19T01:04:33.167Z,4.33
2023-01-19T01:06:59.902Z,4.67
2023-01-19T01:09:26.624Z,4.63
2023-01-19T01:11:53.300Z,4.87
2023-01-19T01:14:19.935Z,4.40
2023-01-19T01:16:46.605Z,5.03
2023-01-19T01:19:13.257Z,5.10
2023-01-19T01:21:39.936Z,4.57
2023-01-19T01:24:07.203Z,4.63
2023-01-19T01:26:33.828Z,5.63
2023-01-19T01:29:00.441Z,5.47
2023-01-19T01:31:27.102Z,4.73
2023-01-19T01:33:53.784Z,5.13
2023-01-19T01:36:21.599Z,5.33
2023-01-19T01:38:48.461Z,5.50
2023-01-19T01:41:15.117Z,4.93
2023-01-19T01:43:44.028Z,4.80
2023-01-19T01:46:11.754Z,4.90
2023-01-19T01:48:39.432Z,6.10
2023-01-19T01:51:42.750Z,4.73
2023-01-19T01:54:25.107Z,6.23
2023-01-19T01:56:53.501Z,4.50
2023-01-19T01:59:27.268Z,4.83
2023-01-19T02:02:15.567Z,5.20
2023-01-19T02:04:59.393Z,5.03
2023-01-19T02:08:18.854Z,4.77
2023-01-19T02:11:04.484Z,4.77
2023-01-19T02:13:34.536Z,5.50
2023-01-19T02:16:03.291Z,5.63
2023-01-19T02:18:31.396Z,4.47
2023-01-19T02:21:11.584Z,4.60
2023-01-19T02:23:46.521Z,4.80
2023-01-19T02:26:19.482Z,4.40
2023-01-19T02:29:10.564Z,4.60
2023-01-19T02:31:39.026Z,3.90
2023-01-19T02:34:10.422Z,4.43
2023-01-19T02:36:53.514Z,4.30
2023-01-19T02:39:28.910Z,5.33
2023-01-19T02:42:01.380Z,4.50
2023-01-19T02:44:28.127Z,4.70
2023-01-19T02:46:55.045Z,5.07
2023-01-19T02:49:21.706Z,5.40
2023-01-19T02:51:48.833Z,4.37
2023-01-19T02:54:42.069Z,5.17
2023-01-19T02:57:27.284Z,5.07
2023-01-19T03:00:41.319Z,4.37
2023-01-19T03:03:27.733Z,5.93
2023-01-19T03:06:01.490Z,4.73
2023-01-19T03:08:54.060Z,4.03
2023-01-19T03:11:20.840Z,6.00
2023-01-19T03:13:53.829Z,4.47
2023-01-19T03:16:22.516Z,5.23
2023-01-19T03:18:58.398Z,5.23
2023-01-19T03:21:27.680Z,4.47
2023-01-19T03:23:58.356Z,4.47
2023-01-19T03:26:29.106Z,4.40
2023-01-19T03:28:56.792Z,5.00
2023-01-19T03:31:26.567Z,3.80
2023-01-19T03:34:05.623Z,4.40
2023-01-19T03:36:43.848Z,4.20
2023-01-19T03:39:11.374Z,4.30
2023-01-19T03:41:40.802Z,3.97
2023-01-19T03:44:07.966Z,4.53
2023-01-19T03:46:34.914Z,4.27
2023-01-19T03:49:01.551Z,4.37
2023-01-19T03:51:28.329Z,5.47
2023-01-19T03:53:54.942Z,4.60
2023-01-19T03:56:23.667Z,4.50
2023-01-19T03:58:50.745Z,4.27
2023-01-19T04:01:18.402Z,4.03
2023-01-19T04:03:47.136Z,4.33
2023-01-19T04:06:13.848Z,4.23
2023-01-19T04:08:40.836Z,6.13
2023-01-19T04:11:08.257Z,5.13
2023-01-19T04:13:35.221Z,4.10
2023-01-19T04:16:03.194Z,4.10
2023-01-19T04:18:32.900Z,4.13
2023-01-19T04:21:01.504Z,4.00
2023-01-19T04:23:28.616Z,6.07
2023-01-19T04:26:13.574Z,3.83
2023-01-19T04:28:40.423Z,4.30
2023-01-19T04:31:07.879Z,5.80
2023-01-19T04:33:34.966Z,4.33
2023-01-19T04:36:01.670Z,4.00
2023-01-19T04:38:28.313Z,4.07
2023-01-19T04:40:54.921Z,4.00
2023-01-19T04:43:21.915Z,3.70
2023-01-19T04:45:49.179Z,3.80
2023-01-19T04:48:16.460Z,3.70
2023-01-19T04:50:43.109Z,5.50
2023-01-19T04:53:10.140Z,3.43
2023-01-19T04:55:40.124Z,4.23
2023-01-19T04:58:06.808Z,3.53
2023-01-19T05:00:33.943Z,3.77
2023-01-19T05:03:01.608Z,3.97
2023-01-19T05:05:28.682Z,3.97
2023-01-19T05:07:55.465Z,3.97
2023-01-19T05:10:22.342Z,3.70
2023-01-19T05:12:49.506Z,5.57
2023-01-19T05:15:16.219Z,4.00
2023-01-19T05:17:42.875Z,3.73
2023-01-19T05:20:16.120Z,4.87
2023-01-19T05:22:43.717Z,4.73
2023-01-19T05:25:10.461Z,3.60
2023-01-19T05:27:38.609Z,3.87
2023-01-19T05:30:06.325Z,3.83
2023-01-19T05:32:32.957Z,4.00
2023-01-19T05:34:59.608Z,4.20
2023-01-19T05:37:26.236Z,3.47
2023-01-19T05:39:53.357Z,4.13
2023-01-19T05:42:20.294Z,4.10
2023-01-19T05:44:46.927Z,3.60
2023-01-19T05:47:13.534Z,3.60
2023-01-19T05:49:40.212Z,4.50
2023-01-19T05:52:06.895Z,5.03
2023-01-19T05:54:33.556Z,4.10
2023-01-19T05:57:00.228Z,4.53
2023-01-19T05:59:26.892Z,4.77
2023-01-19T06:01:54.245Z,3.67
2023-01-19T06:04:21.598Z,4.53
2023-01-19T06:06:48.960Z,3.73
2023-01-19T06:09:17.184Z,4.33
2023-01-19T06:11:45.971Z,3.77
2023-01-19T06:14:12.990Z,5.10
2023-01-19T06:16:39.859Z,3.97
2023-01-19T06:19:06.830Z,4.07
2023-01-19T06:21:34.326Z,4.30
2023-01-19T06:24:01.010Z,4.60
2023-01-19T06:26:27.900Z,4.80
2023-01-19T06:28:54.756Z,4.17
2023-01-19T06:31:21.643Z,4.20
2023-01-19T06:33:48.394Z,3.93
2023-01-19T06:36:15.133Z,3.90
2023-01-19T06:38:41.725Z,4.47
2023-01-19T06:41:08.363Z,4.47
2023-01-19T06:43:35.028Z,4.00
2023-01-19T06:46:02.292Z,4.40
2023-01-19T06:48:28.990Z,6.40
2023-01-19T06:50:58.475Z,4.47
2023-01-19T06:53:27.666Z,4.73
2023-01-19T06:55:54.827Z,4.50
2023-01-19T06:58:21.623Z,4.87
2023-01-19T07:00:50.273Z,4.07
2023-01-19T07:03:20.283Z,5.27
2023-01-19T07:05:47.027Z,4.50
2023-01-19T07:08:15.409Z,5.07
2023-01-19T07:11:24.856Z,4.63
2023-01-19T07:13:28.776Z,4.80
2023-01-19T07:15:55.522Z,5.77
2023-01-19T07:18:22.440Z,6.50
2023-01-19T07:20:49.392Z,6.27
2023-01-19T07:23:16.715Z,6.50
2023-01-19T07:25:46.741Z,6.50
2023-01-19T07:28:15.705Z,5.40
2023-01-19T07:30:46.475Z,5.87
2023-01-19T07:33:13.262Z,5.57
2023-01-19T07:35:40.080Z,5.90
2023-01-19T07:38:06.949Z,5.80
2023-01-19T07:40:33.890Z,5.63
2023-01-19T07:43:01.160Z,6.30
2023-01-19T07:45:28.371Z,6.20
2023-01-19T07:47:55.256Z,6.17
2023-01-19T07:50:24.709Z,6.30
2023-01-19T07:52:54.080Z,5.33
2023-01-19T07:55:21.331Z,5.37
2023-01-19T07:57:51.934Z,6.00
2023-01-19T08:00:21.980Z,6.00
2023-01-19T08:02:52.057Z,5.10
2023-01-19T08:05:19.821Z,5.00
2023-01-19T08:07:54.160Z,5.30
2023-01-19T08:10:23.082Z,5.97
2023-01-19T08:12:50.193Z,4.63
2023-01-19T08:15:17.014Z,4.73
2023-01-19T08:17:44.037Z,6.00
2023-01-19T08:20:12.147Z,4.87
2023-01-19T08:22:38.868Z,6.07
2023-01-19T08:25:06.160Z,5.73
2023-01-19T08:27:32.896Z,5.20
2023-01-19T08:30:00.085Z,5.30
2023-01-19T08:32:27.425Z,4.27
2023-01-19T08:34:54.105Z,4.30
2023-01-19T08:37:20.729Z,3.57
2023-01-19T08:39:47.465Z,5.13
2023-01-19T08:42:14.124Z,4.83
2023-01-19T08:44:49.696Z,3.67
2023-01-19T08:47:23.734Z,4.00
2023-01-19T08:49:50.492Z,3.97
2023-01-19T08:52:17.160Z,4.43
2023-01-19T08:54:44.504Z,4.13
2023-01-19T08:57:11.155Z,3.93
2023-01-19T08:59:38.161Z,3.27
2023-01-19T09:02:04.896Z,3.63
2023-01-19T09:04:34.425Z,4.23
2023-01-19T09:07:01.027Z,3.50
2023-01-19T09:09:28.805Z,3.80
2023-01-19T09:11:55.712Z,3.90
2023-01-19T09:14:22.517Z,3.87
2023-01-19T09:16:49.239Z,4.70
2023-01-19T09:19:16.052Z,3.93
2023-01-19T09:21:43.347Z,4.07
2023-01-19T09:24:10.039Z,3.50
2023-01-19T09:26:36.904Z,3.93
2023-01-19T09:29:03.635Z,4.23
2023-01-19T09:31:31.032Z,3.50
2023-01-19T09:33:57.745Z,3.97
2023-01-19T09:36:24.392Z,5.70
2023-01-19T09:38:51.671Z,4.63
2023-01-19T09:41:22.377Z,4.03
2023-01-19T09:43:58.136Z,3.57
2023-01-19T09:46:42.145Z,3.40
2023-01-19T09:49:19.443Z,3.97
2023-01-19T09:51:48.252Z,3.80
2023-01-19T09:54:41.112Z,4.63
2023-01-19T09:57:13.144Z,3.50
2023-01-19T09:59:40.612Z,3.43
2023-01-19T10:02:37.287Z,3.80
2023-01-19T10:05:05.169Z,3.10
2023-01-19T10:07:56.431Z,3.80
2023-01-19T10:10:31.553Z,4.87
2023-01-19T10:13:10.550Z,3.30
2023-01-19T10:16:07.348Z,3.30
2023-01-19T10:18:47.140Z,4.27
2023-01-19T10:21:22.742Z,3.40
2023-01-19T10:23:54.650Z,4.43
2023-01-19T10:26:25.720Z,3.53
2023-01-19T10:29:01.238Z,3.40
2023-01-19T10:31:28.096Z,3.40
2023-01-19T10:33:54.827Z,3.70
2023-01-19T10:36:38.292Z,3.23
2023-01-19T10:39:05.822Z,3.40
2023-01-19T10:41:40.843Z,3.30
2023-01-19T10:44:09.466Z,4.10
2023-01-19T10:46:42.853Z,3.30
2023-01-19T10:49:31.526Z,5.10
2023-01-19T10:51:59.090Z,3.50
2023-01-19T10:54:27.092Z,3.37
2023-01-19T10:56:55.833Z,3.57
2023-01-19T10:59:38.422Z,3.53
2023-01-19T11:02:26.529Z,3.33
2023-01-19T11:04:59.136Z,3.20
2023-01-19T11:07:30.642Z,3.90
2023-01-19T11:10:15.496Z,3.00
2023-01-19T11:13:01.349Z,2.93
2023-01-19T11:15:32.041Z,3.33
2023-01-19T11:17:58.744Z,2.97
2023-01-19T11:20:32.695Z,3.07
2023-01-19T11:23:20.265Z,3.00
2023-01-19T11:25:49.151Z,3.13
2023-01-19T11:28:32.193Z,3.70
2023-01-19T11:31:01.286Z,2.47
2023-01-19T11:33:36.932Z,4.03
2023-01-19T11:36:07.563Z,2.70
2023-01-19T11:38:43.208Z,3.00
2023-01-19T11:41:28.978Z,2.73
2023-01-19T11:43:58.052Z,3.37
2023-01-19T11:46:37.436Z,2.93
2023-01-19T11:49:06.771Z,3.20
2023-01-19T11:51:44.159Z,2.83
2023-01-19T11:54:23.826Z,3.13
2023-01-19T11:56:52.165Z,3.53
2023-01-19T11:59:19.378Z,3.13
2023-01-19T12:01:50.778Z,3.37
2023-01-19T12:04:20.250Z,3.17
2023-01-19T12:06:53.330Z,3.03
2023-01-19T12:09:27.098Z,3.37
2023-01-19T12:11:57.683Z,3.23
2023-01-19T12:14:35.382Z,3.30
2023-01-19T12:17:03.626Z,3.30
2023-01-19T12:19:42.412Z,3.20
2023-01-19T12:22:16.944Z,2.67
2023-01-19T12:24:52.494Z,2.63
2023-01-19T12:27:42.675Z,2.80
2023-01-19T12:30:26.722Z,2.80
2023-01-19T12:33:22.282Z,2.70
2023-01-19T12:36:11.434Z,2.63
2023-01-19T12:38:42.287Z,2.63
2023-01-19T12:41:30.675Z,2.70
2023-01-19T12:44:14.122Z,3.17
2023-01-19T12:46:55.152Z,2.60
2023-01-19T12:49:29.140Z,2.70
2023-01-19T12:52:25.108Z,2.80
2023-01-19T12:55:06.783Z,3.10
2023-01-19T12:57:39.961Z,2.70
2023-01-19T13:00:24.073Z,2.43
2023-01-19T13:02:59.260Z,2.40
2023-01-19T13:05:39.467Z,3.07
2023-01-19T13:08:06.315Z,3.67
2023-01-19T13:10:54.573Z,3.23
2023-01-19T13:13:37.893Z,2.77
2023-01-19T13:16:20.009Z,2.63
2023-01-19T13:18:50.011Z,3.10
2023-01-19T13:21:31.516Z,3.07
2023-01-19T13:24:00.500Z,3.13
2023-01-19T13:26:43.244Z,2.90
2023-01-19T13:29:22.907Z,2.90
2023-01-19T13:31:50.281Z,3.00
2023-01-19T13:34:28.453Z,2.73
2023-01-19T13:36:59.096Z,2.60
2023-01-19T13:39:36.825Z,2.80
2023-01-19T13:42:16.471Z,2.60
2023-01-19T13:44:51.302Z,2.63
2023-01-19T13:47:32.717Z,2.57
2023-01-19T13:50:01.371Z,2.63
2023-01-19T13:52:29.495Z,3.10
2023-01-19T13:55:02.476Z,2.60
2023-01-19T13:57:39.712Z,3.30
2023-01-19T14:00:12.870Z,3.00
2023-01-19T14:02:40.436Z,2.80
2023-01-19T14:05:27.691Z,3.50
2023-01-19T14:08:08.402Z,2.73
2023-01-19T14:10:35.998Z,4.03
2023-01-19T14:13:17.700Z,3.23
2023-01-19T14:15:45.426Z,2.70
2023-01-19T14:18:17.694Z,4.20
2023-01-19T14:21:01.289Z,3.03
2023-01-19T14:24:05.078Z,3.20
2023-01-19T14:26:37.882Z,3.10
2023-01-19T14:29:10.304Z,7.43
2023-01-19T14:31:47.587Z,2.90
2023-01-19T14:34:45.679Z,3.63
2023-01-19T14:37:20.174Z,2.80
2023-01-19T14:39:52.507Z,3.20
2023-01-19T14:42:42.542Z,2.90
2023-01-19T14:45:21.232Z,3.17
2023-01-19T14:48:01.043Z,2.50
2023-01-19T14:50:33.147Z,2.97
2023-01-19T14:53:03.427Z,4.43
2023-01-19T14:55:47.411Z,2.70
2023-01-19T14:58:16.443Z,3.40
2023-01-19T15:00:44.532Z,3.03
2023-01-19T15:03:11.254Z,3.00
2023-01-19T15:05:39.497Z,2.50
2023-01-19T15:08:06.334Z,2.53
2023-01-19T15:10:33.427Z,3.03
2023-01-19T15:13:00.225Z,2.50
2023-01-19T15:15:32.655Z,2.93
2023-01-19T15:18:01.119Z,2.63
2023-01-19T15:20:27.872Z,2.80
2023-01-19T15:22:54.592Z,2.73
2023-01-19T15:25:27.494Z,2.90
2023-01-19T15:27:57.918Z,2.70
2023-01-19T15:30:36.158Z,2.90
2023-01-19T15:33:02.964Z,2.80
2023-01-19T15:35:29.695Z,2.50
2023-01-19T15:37:56.476Z,2.60
2023-01-19T15:40:23.217Z,2.93
2023-01-19T15:42:50.375Z,2.50
2023-01-19T15:45:38.858Z,2.67
2023-01-19T15:48:10.953Z,2.40
2023-01-19T15:50:42.944Z,2.53
2023-01-19T15:53:20.277Z,2.53
2023-01-19T15:55:55.449Z,2.50
2023-01-19T15:58:23.404Z,2.30
2023-01-19T16:00:57.667Z,2.30
2023-01-19T16:03:25.629Z,2.30
2023-01-19T16:05:52.285Z,2.47
2023-01-19T16:08:19.048Z,2.47
2023-01-19T16:10:45.791Z,3.00
2023-01-19T16:13:12.644Z,2.50
2023-01-19T16:15:39.852Z,2.77
2023-01-19T16:18:06.544Z,2.40
2023-01-19T16:20:33.240Z,2.37
2023-01-19T16:23:13.881Z,2.50
2023-01-19T16:25:41.528Z,2.20
2023-01-19T16:28:08.390Z,2.53
2023-01-19T16:30:35.202Z,2.30
2023-01-19T16:33:02.132Z,2.37
2023-01-19T16:35:28.783Z,2.50
2023-01-19T16:37:55.475Z,2.60
2023-01-19T16:40:22.176Z,2.37
2023-01-19T16:42:48.979Z,2.87
2023-01-19T16:45:15.700Z,3.17
2023-01-19T16:47:42.966Z,2.40
2023-01-19T16:50:12.925Z,3.00
2023-01-19T16:52:39.966Z,2.57
2023-01-19T16:55:09.398Z,2.50
2023-01-19T16:57:38.880Z,2.80
2023-01-19T17:00:07.453Z,2.70
2023-01-19T17:02:34.138Z,2.90
2023-01-19T17:05:00.785Z,2.77
2023-01-19T17:07:28.294Z,3.30
2023-01-19T17:09:55.178Z,2.80
2023-01-19T17:12:21.904Z,2.87
2023-01-19T17:14:48.551Z,3.70
2023-01-19T17:17:15.212Z,3.40
2023-01-19T17:19:41.859Z,3.40
2023-01-19T17:22:08.522Z,3.50
2023-01-19T17:24:35.188Z,3.80
2023-01-19T17:27:01.860Z,4.77
2023-01-19T17:29:28.539Z,3.97
2023-01-19T17:31:55.146Z,4.63
2023-01-19T17:34:21.785Z,4.47
2023-01-19T17:36:50.494Z,4.57
2023-01-19T17:39:18.520Z,5.00
2023-01-19T17:41:45.394Z,4.90
2023-01-19T17:44:12.207Z,5.43
2023-01-19T17:46:39.336Z,7.37
2023-01-19T17:49:07.746Z,6.37
2023-01-19T17:51:34.692Z,6.20
2023-01-19T17:54:01.374Z,7.97
2023-01-19T17:56:30.289Z,7.10
2023-01-19T17:58:58.130Z,6.97
2023-01-19T18:01:30.667Z,7.17
2023-01-19T18:03:58.299Z,7.27
2023-01-19T18:06:25.208Z,6.70
2023-01-19T18:08:52.564Z,8.30
2023-01-19T18:11:20.822Z,7.57
2023-01-19T18:13:48.987Z,7.17
2023-01-19T18:16:22.723Z,7.97
2023-01-19T18:18:50.168Z,7.03
2023-01-19T18:21:17.420Z,8.80
2023-01-19T18:23:45.100Z,7.80
2023-01-19T18:26:17.497Z,7.57
2023-01-19T18:28:44.436Z,7.73
2023-01-19T18:31:13.007Z,7.87
2023-01-19T18:33:40.507Z,7.47
2023-01-19T18:36:07.834Z,7.47
2023-01-19T18:38:35.367Z,6.97
2023-01-19T18:41:02.165Z,8.07
2023-01-19T18:43:29.126Z,7.07
2023-01-19T18:45:55.938Z,7.00
2023-01-19T18:48:22.793Z,7.67
2023-01-19T18:50:49.685Z,7.97
2023-01-19T18:53:16.420Z,8.13
2023-01-19T18:55:52.122Z,7.80
2023-01-19T18:58:19.063Z,7.93
2023-01-19T19:00:45.707Z,7.13
2023-01-19T19:03:12.521Z,8.67
2023-01-19T19:05:39.365Z,7.03
2023-01-19T19:08:06.422Z,7.53
2023-01-19T19:10:33.294Z,7.33
2023-01-19T19:13:00.190Z,8.03
2023-01-19T19:15:27.213Z,7.37
2023-01-19T19:17:54.541Z,7.27
2023-01-19T19:20:23.327Z,7.40
2023-01-19T19:22:50.342Z,6.60
2023-01-19T19:25:17.418Z,8.20
2023-01-19T19:27:45.461Z,6.73
2023-01-19T19:30:13.647Z,7.00
2023-01-19T19:32:40.515Z,6.73
2023-01-19T19:35:07.628Z,6.80
2023-01-19T19:37:34.398Z,6.40
2023-01-19T19:40:01.189Z,6.97
2023-01-19T19:42:30.017Z,7.03
2023-01-19T19:44:56.696Z,6.57
2023-01-19T19:47:24.473Z,7.00
2023-01-19T19:49:51.201Z,6.57
2023-01-19T19:52:17.884Z,6.70
2023-01-19T19:54:45.679Z,6.80
2023-01-19T19:57:12.282Z,7.17
2023-01-19T19:59:39.175Z,7.20
2023-01-19T20:02:07.027Z,6.30
2023-01-19T20:04:33.746Z,6.90
2023-01-19T20:07:00.407Z,6.17
2023-01-19T20:09:27.059Z,6.93
2023-01-19T20:11:53.673Z,5.73
2023-01-19T20:14:22.349Z,7.40
2023-01-19T20:16:49.284Z,6.00
2023-01-19T20:19:17.826Z,7.03
2023-01-19T20:21:44.536Z,6.67
2023-01-19T20:24:16.210Z,7.17
2023-01-19T20:26:45.919Z,6.80
2023-01-19T20:29:12.590Z,6.17
2023-01-19T20:31:42.982Z,6.63
2023-01-19T20:34:11.026Z,6.13
2023-01-19T20:36:37.993Z,5.97
2023-01-19T20:39:08.447Z,5.63
2023-01-19T20:41:43.055Z,6.50
2023-01-19T20:44:11.275Z,5.93
2023-01-19T20:46:37.992Z,7.03
2023-01-19T20:49:04.682Z,5.97
2023-01-19T20:51:31.378Z,6.40
2023-01-19T20:53:57.996Z,5.87
2023-01-19T20:56:24.678Z,5.33
2023-01-19T20:58:51.308Z,6.73
2023-01-19T21:01:27.140Z,6.27
2023-01-19T21:03:53.872Z,5.53
2023-01-19T21:06:21.194Z,6.97
2023-01-19T21:08:49.989Z,6.30
2023-01-19T21:11:19.646Z,5.43
2023-01-19T21:13:50.563Z,5.70
2023-01-19T21:16:17.500Z,5.33
2023-01-19T21:18:44.177Z,5.67
2023-01-19T21:21:24.600Z,5.83
2023-01-19T21:23:57.504Z,5.10
2023-01-19T21:26:24.225Z,6.80
2023-01-19T21:28:50.974Z,6.03
2023-01-19T21:31:27.520Z,6.67
2023-01-19T21:33:55.602Z,6.83
2023-01-19T21:36:23.181Z,6.17
2023-01-19T21:38:52.758Z,5.47
2023-01-19T21:41:19.858Z,7.17
2023-01-19T21:43:46.559Z,5.60
2023-01-19T21:46:19.319Z,6.00
2023-01-19T21:48:46.074Z,6.23
2023-01-19T21:51:13.511Z,5.67
2023-01-19T21:53:40.701Z,7.43
2023-01-19T21:56:10.936Z,7.00
2023-01-19T21:58:38.148Z,6.10
2023-01-19T22:01:09.785Z,6.43
2023-01-19T22:03:36.708Z,6.70
2023-01-19T22:06:08.612Z,7.03
2023-01-19T22:08:35.724Z,5.63
2023-01-19T22:11:07.220Z,6.80
2023-01-19T22:13:34.779Z,6.23
2023-01-19T22:16:02.717Z,5.77
2023-01-19T22:18:29.552Z,6.10
2023-01-19T22:20:56.335Z,5.87
2023-01-19T22:23:22.948Z,6.43
2023-01-19T22:25:49.613Z,5.50
2023-01-19T22:28:16.257Z,5.93
2023-01-19T22:30:43.235Z,6.43
2023-01-19T22:33:09.990Z,5.77
2023-01-19T22:35:37.067Z,6.37
2023-01-19T22:38:03.846Z,6.87
2023-01-19T22:40:30.500Z,6.27
2023-01-19T22:42:57.093Z,6.63
2023-01-19T22:45:23.795Z,7.03
2023-01-19T22:47:50.499Z,5.70
2023-01-19T22:50:17.222Z,5.63
2023-01-19T22:52:43.878Z,6.37
2023-01-19T22:55:10.632Z,7.13
2023-01-19T22:57:38.237Z,6.00
2023-01-19T23:00:08.609Z,6.33
2023-01-19T23:02:35.339Z,6.77
2023-01-19T23:05:02.047Z,6.17
2023-01-19T23:07:28.677Z,6.53
2023-01-19T23:09:55.317Z,6.27
2023-01-19T23:12:21.969Z,6.47
2023-01-19T23:14:48.601Z,6.93
2023-01-19T23:17:15.269Z,6.40
2023-01-19T23:19:41.979Z,6.57
2023-01-19T23:22:08.659Z,7.13
2023-01-19T23:24:35.359Z,6.20
2023-01-19T23:27:02.392Z,7.03
2023-01-19T23:29:29.055Z,8.37
2023-01-19T23:31:56.252Z,6.70
2023-01-19T23:34:22.893Z,6.60
2023-01-19T23:36:49.595Z,7.57
2023-01-19T23:39:18.693Z,6.73
2023-01-19T23:41:45.839Z,6.87
2023-01-19T23:44:12.865Z,6.67
2023-01-19T23:46:39.549Z,7.40
2023-01-19T23:49:06.214Z,7.07
2023-01-19T23:51:33.904Z,6.70
2023-01-19T23:54:01.193Z,6.90
2023-01-19T23:56:30.769Z,6.13
2023-01-19T23:59:05.785Z,6.37
